Klin, Russia
Current Conditions -  °F | °C
As of 10:30 AM on Sunday 26 Oct 2014 (Local Time) from UUEE Reporting Station
Clear Clear  
Wind Chill: 19°   Ceiling: Unl
Heat Index: 28°   Visibility: 6mi
Dew Point: 16°   Wind: 11mph
Humidity: 59%   Direction: 220°SW
Pressure: 30.53"   Gusts: NA
Location:  56.34°N, 36.7°E
Report Text: UUEE 260730Z 22005MPS CAVOK M02/M09 Q1034 75000062 25000062NOSIG
Loading
Personal Weather Stations






























Interactive Weather Map
Tropical Storm Tracking
New forecast layout! Learn more

10-Day Weather Forecast

Advertisements
Track Severe Weather on mobile